createdAt,value
2018-08-11T00:02:12.288Z,1.13
2018-08-11T00:07:15.503Z,0.70
2018-08-11T00:12:18.711Z,0.97
2018-08-11T00:17:21.931Z,1.10
2018-08-11T00:22:25.218Z,1.33
2018-08-11T00:27:31.305Z,1.20
2018-08-11T00:32:34.519Z,0.90
2018-08-11T00:37:37.763Z,1.53
2018-08-11T00:42:41.739Z,1.00
2018-08-11T00:47:46.028Z,1.33
2018-08-11T00:52:49.259Z,1.10
2018-08-11T00:57:52.503Z,1.03
2018-08-11T01:02:55.759Z,1.00
2018-08-11T01:07:58.971Z,1.00
2018-08-11T01:13:02.203Z,1.00
2018-08-11T01:18:05.471Z,1.00
2018-08-11T01:23:08.703Z,1.00
2018-08-11T01:28:12.040Z,0.90
2018-08-11T01:33:15.283Z,1.03
2018-08-11T01:38:18.571Z,1.27
2018-08-11T01:43:21.823Z,1.10
2018-08-11T01:48:25.063Z,1.10
2018-08-11T01:53:28.287Z,0.90
2018-08-11T01:58:31.674Z,1.37
2018-08-11T02:03:34.911Z,1.10
2018-08-11T02:08:38.142Z,1.30
2018-08-11T02:13:41.390Z,1.13
2018-08-11T02:18:44.631Z,1.30
2018-08-11T02:23:47.858Z,1.37
2018-08-11T02:28:51.115Z,1.33
2018-08-11T02:33:54.627Z,1.20
2018-08-11T02:38:57.861Z,1.00
2018-08-11T02:44:01.103Z,1.20
2018-08-11T02:49:04.363Z,0.77
2018-08-11T02:54:07.596Z,0.80
2018-08-11T02:59:10.843Z,0.90
2018-08-11T03:04:14.071Z,1.40
2018-08-11T03:09:17.320Z,0.83
2018-08-11T03:14:20.541Z,0.90
2018-08-11T03:19:23.783Z,1.13
2018-08-11T03:24:27.014Z,0.90
2018-08-11T03:29:30.253Z,0.90
2018-08-11T03:34:33.470Z,0.87
2018-08-11T03:39:36.719Z,1.17
2018-08-11T03:44:39.930Z,1.20
2018-08-11T03:49:43.163Z,0.90
2018-08-11T03:54:46.508Z,0.90
2018-08-11T03:59:49.802Z,0.70
2018-08-11T04:04:53.036Z,0.80
2018-08-11T04:09:56.264Z,1.13
2018-08-11T04:14:59.570Z,0.90
2018-08-11T04:20:02.795Z,0.83
2018-08-11T04:25:06.795Z,1.10
2018-08-11T04:30:11.118Z,0.87
2018-08-11T04:35:14.357Z,0.77
2018-08-11T04:40:17.671Z,0.73
2018-08-11T04:45:20.883Z,0.77
2018-08-11T04:50:24.097Z,0.87
2018-08-11T04:55:27.351Z,1.10
2018-08-11T05:00:30.568Z,0.70
2018-08-11T05:05:33.796Z,0.90
2018-08-11T05:10:37.040Z,0.90
2018-08-11T05:15:40.275Z,1.00
2018-08-11T05:20:43.507Z,1.03
2018-08-11T05:25:46.735Z,0.90
2018-08-11T05:30:49.964Z,1.50
2018-08-11T05:35:53.195Z,1.03
2018-08-11T05:40:56.422Z,0.90
2018-08-11T05:45:59.644Z,1.13
2018-08-11T05:51:02.854Z,1.13
2018-08-11T05:56:06.375Z,1.30
2018-08-11T06:01:09.608Z,1.30
2018-08-11T06:06:12.831Z,0.80
2018-08-11T06:11:16.060Z,1.10
2018-08-11T06:16:19.295Z,1.40
2018-08-11T06:21:22.519Z,1.00
2018-08-11T06:26:25.755Z,1.10
2018-08-11T06:31:29.946Z,1.30
2018-08-11T06:36:33.047Z,1.10
2018-08-11T06:41:36.363Z,1.23
2018-08-11T06:46:39.660Z,1.67
2018-08-11T06:51:42.851Z,1.37
2018-08-11T06:56:46.103Z,1.83
2018-08-11T07:01:49.327Z,1.67
2018-08-11T07:06:52.638Z,2.27
2018-08-11T07:11:55.850Z,1.87
2018-08-11T07:16:59.095Z,2.10
2018-08-11T07:22:02.330Z,1.90
2018-08-11T07:27:05.567Z,2.70
2018-08-11T07:32:08.795Z,2.60
2018-08-11T07:37:12.060Z,2.80
2018-08-11T07:42:15.291Z,2.90
2018-08-11T07:47:18.527Z,2.80
2018-08-11T07:52:21.783Z,4.60
2018-08-11T07:57:25.031Z,4.00
2018-08-11T08:02:28.274Z,4.50
2018-08-11T08:07:31.515Z,3.87
2018-08-11T08:12:34.763Z,5.33
2018-08-11T08:17:38.011Z,3.90
2018-08-11T08:22:41.314Z,4.20
2018-08-11T08:27:44.581Z,4.13
2018-08-11T08:32:47.826Z,3.70
2018-08-11T08:37:51.068Z,3.70
2018-08-11T08:42:54.310Z,4.07
2018-08-11T08:47:57.555Z,3.43
2018-08-11T08:53:00.775Z,4.07
2018-08-11T08:58:04.035Z,3.10
2018-08-11T09:03:07.267Z,3.30
2018-08-11T09:08:10.492Z,3.37
2018-08-11T09:13:13.707Z,3.60
2018-08-11T09:18:16.930Z,3.47
2018-08-11T09:23:20.150Z,2.73
2018-08-11T09:28:23.388Z,2.97
2018-08-11T09:33:26.607Z,2.90
2018-08-11T09:38:29.933Z,2.70
2018-08-11T09:43:33.095Z,2.80
2018-08-11T09:48:36.428Z,2.90
2018-08-11T09:53:39.656Z,2.83
2018-08-11T09:58:42.899Z,2.27
2018-08-11T10:03:46.131Z,2.10
2018-08-11T10:08:49.368Z,2.23
2018-08-11T10:13:52.667Z,1.97
2018-08-11T10:18:55.910Z,1.93
2018-08-11T10:23:59.175Z,2.00
2018-08-11T10:29:02.655Z,1.43
2018-08-11T10:34:05.887Z,1.90
2018-08-11T10:39:11.294Z,1.80
2018-08-11T10:44:14.551Z,2.20
2018-08-11T10:49:17.793Z,1.80
2018-08-11T10:54:21.032Z,1.70
2018-08-11T10:59:24.284Z,1.63
2018-08-11T11:04:27.531Z,1.57
2018-08-11T11:09:30.759Z,1.40
2018-08-11T11:14:33.983Z,1.60
2018-08-11T11:19:37.204Z,1.40
2018-08-11T11:24:40.426Z,1.67
2018-08-11T11:29:43.646Z,2.10
2018-08-11T11:34:46.882Z,1.80
2018-08-11T11:39:50.115Z,1.60
2018-08-11T11:44:53.383Z,1.70
2018-08-11T11:49:56.618Z,1.67
2018-08-11T11:54:59.881Z,1.53
2018-08-11T12:00:03.321Z,1.53
2018-08-11T12:05:06.575Z,1.70
2018-08-11T12:10:09.799Z,1.70
2018-08-11T12:15:13.019Z,1.60
2018-08-11T12:20:16.355Z,1.60
2018-08-11T12:25:19.598Z,1.77
2018-08-11T12:30:22.847Z,1.87
2018-08-11T12:35:26.088Z,1.73
2018-08-11T12:40:29.326Z,1.27
2018-08-11T12:45:32.593Z,1.20
2018-08-11T12:50:35.804Z,1.63
2018-08-11T12:55:39.066Z,1.33
2018-08-11T13:00:42.296Z,1.40
2018-08-11T13:05:45.547Z,1.90
2018-08-11T13:10:48.779Z,0.97
2018-08-11T13:15:52.019Z,1.30
2018-08-11T13:20:55.272Z,1.53
2018-08-11T13:25:58.527Z,1.00
2018-08-11T13:31:01.751Z,1.37
2018-08-11T13:36:04.986Z,1.53
2018-08-11T13:41:08.472Z,1.33
2018-08-11T13:46:11.771Z,1.20
2018-08-11T13:51:14.991Z,1.20
2018-08-11T13:56:18.291Z,1.17
2018-08-11T14:01:21.582Z,1.33
2018-08-11T14:06:25.235Z,0.90
2018-08-11T14:11:28.471Z,1.23
2018-08-11T14:16:31.711Z,1.13
2018-08-11T14:21:34.931Z,1.00
2018-08-11T14:26:38.175Z,1.00
2018-08-11T14:31:41.428Z,0.90
2018-08-11T14:36:44.735Z,1.17
2018-08-11T14:41:48.046Z,0.93
2018-08-11T14:46:51.286Z,1.10
2018-08-11T14:51:54.519Z,0.93
2018-08-11T14:56:57.791Z,1.23
2018-08-11T15:02:01.023Z,0.90
2018-08-11T15:07:04.283Z,0.80
2018-08-11T15:12:07.512Z,0.83
2018-08-11T15:17:10.743Z,1.00
2018-08-11T15:22:13.977Z,1.27
2018-08-11T15:27:17.206Z,1.10
2018-08-11T15:32:20.443Z,1.10
2018-08-11T15:37:23.675Z,1.00
2018-08-11T15:42:26.910Z,0.87
2018-08-11T15:47:30.151Z,1.00
2018-08-11T15:52:33.396Z,0.80
2018-08-11T15:57:36.693Z,0.90
2018-08-11T16:02:39.927Z,1.20
2018-08-11T16:07:43.362Z,1.10
2018-08-11T16:12:46.606Z,1.20
2018-08-11T16:17:49.830Z,1.00
2018-08-11T16:22:53.063Z,1.07
2018-08-11T16:27:56.317Z,1.10
2018-08-11T16:32:59.558Z,1.10
2018-08-11T16:38:02.811Z,1.30
2018-08-11T16:43:06.035Z,0.90
2018-08-11T16:48:09.258Z,1.10
2018-08-11T16:53:12.567Z,1.50
2018-08-11T16:58:15.826Z,1.30
2018-08-11T17:03:19.106Z,1.03
2018-08-11T17:08:22.687Z,1.00
2018-08-11T17:13:26.237Z,1.60
2018-08-11T17:18:29.483Z,1.23
2018-08-11T17:23:32.722Z,1.30
2018-08-11T17:28:35.959Z,1.17
2018-08-11T17:33:39.290Z,1.30
2018-08-11T17:38:43.499Z,0.90
2018-08-11T17:43:46.731Z,1.10
2018-08-11T17:48:49.963Z,1.30
2018-08-11T17:53:53.191Z,1.50
2018-08-11T17:58:56.459Z,1.00
2018-08-11T18:03:59.693Z,1.50
2018-08-11T18:09:03.064Z,1.43
2018-08-11T18:14:06.339Z,1.10
2018-08-11T18:19:09.578Z,1.00
2018-08-11T18:24:12.825Z,0.97
2018-08-11T18:29:16.067Z,1.10
2018-08-11T18:34:20.015Z,1.03
2018-08-11T18:39:23.234Z,1.23
2018-08-11T18:44:26.475Z,1.30
2018-08-11T18:49:29.702Z,1.40
2018-08-11T18:54:32.927Z,1.00
2018-08-11T18:59:36.192Z,1.40
2018-08-11T19:04:39.435Z,1.37
2018-08-11T19:09:42.672Z,1.20
2018-08-11T19:14:45.927Z,1.20
2018-08-11T19:19:49.192Z,1.63
2018-08-11T19:24:52.403Z,0.97
2018-08-11T19:29:55.647Z,1.20
2018-08-11T19:34:58.887Z,1.17
2018-08-11T19:40:02.111Z,1.30
2018-08-11T19:45:07.652Z,1.10
2018-08-11T19:50:11.868Z,1.17
2018-08-11T19:55:15.118Z,1.40
2018-08-11T20:00:18.407Z,1.17
2018-08-11T20:05:21.648Z,1.20
2018-08-11T20:10:24.888Z,1.50
2018-08-11T20:15:28.136Z,1.50
2018-08-11T20:20:31.450Z,1.33
2018-08-11T20:25:34.975Z,1.43
2018-08-11T20:30:38.112Z,1.20
2018-08-11T20:35:41.344Z,1.13
2018-08-11T20:40:44.580Z,1.00
2018-08-11T20:45:47.870Z,1.13
2018-08-11T20:50:51.108Z,1.40
2018-08-11T20:55:54.360Z,1.90
2018-08-11T21:00:57.624Z,1.60
2018-08-11T21:06:00.843Z,1.30
2018-08-11T21:11:04.099Z,1.43
2018-08-11T21:16:07.395Z,1.37
2018-08-11T21:21:10.631Z,1.70
2018-08-11T21:26:13.867Z,1.37
2018-08-11T21:31:17.103Z,1.40
2018-08-11T21:36:20.510Z,1.90
2018-08-11T21:41:23.742Z,2.00
2018-08-11T21:46:26.986Z,1.70
2018-08-11T21:51:30.220Z,1.47
2018-08-11T21:56:33.486Z,1.80
2018-08-11T22:01:36.708Z,1.60
2018-08-11T22:06:39.935Z,1.60
2018-08-11T22:11:43.377Z,1.23
2018-08-11T22:16:46.583Z,1.27
2018-08-11T22:21:49.816Z,1.30
2018-08-11T22:26:53.039Z,1.60
2018-08-11T22:31:56.303Z,1.63
2018-08-11T22:36:59.523Z,1.60
2018-08-11T22:42:02.743Z,1.17
2018-08-11T22:47:06.029Z,1.70
2018-08-11T22:52:09.211Z,1.80
2018-08-11T22:57:12.459Z,1.47
2018-08-11T23:02:15.682Z,1.67
2018-08-11T23:07:18.911Z,1.50
2018-08-11T23:12:22.148Z,1.63
2018-08-11T23:17:25.383Z,1.57
2018-08-11T23:22:28.618Z,1.70
2018-08-11T23:27:31.851Z,1.60
2018-08-11T23:32:35.087Z,1.60
2018-08-11T23:37:38.388Z,1.63
2018-08-11T23:42:41.614Z,1.50
2018-08-11T23:47:44.830Z,1.40
2018-08-11T23:52:48.082Z,1.63
2018-08-11T23:57:51.387Z,1.50
